DFLLY FMMI-FMZJ
Flight info
| Callsign | DFLLY |
|---|---|
| Flight time | 1h 46m |
| Altitude | 7500 |
| Route | IKRAM1E DOBAR UA400 ESTIX/N0148F080 |
| Aircraft | C208/L-SDFGRY/C |
Departure
| Time | 2026-04-29 13:36 |
|---|---|
| Airport | Ivato International Airport (FMMI) |
Arrival
| Time | 2026-04-29 15:22 |
|---|---|
| Airport | Juan de Nova Airstrip (FMZJ) |
| Time | Latitude | Longitude | Altitude | Speed | Heading |
|---|---|---|---|---|---|
| 2026-04-29 13:19 | -18.79943 | 47.47003 | 4186 ft | 0 kts | 189° |
| 2026-04-29 13:22 | -18.79944 | 47.47003 | 4186 ft | 0 kts | 189° |
| 2026-04-29 13:23 | -18.79943 | 47.47007 | 4186 ft | 0 kts | 238° |
| 2026-04-29 13:23 | -18.79940 | 47.47003 | 4186 ft | 2 kts | 329° |
| 2026-04-29 13:23 | -18.79938 | 47.47001 | 4186 ft | 0 kts | 335° |
| 2026-04-29 13:23 | -18.79920 | 47.46994 | 4187 ft | 7 kts | 344° |
| 2026-04-29 13:24 | -18.79875 | 47.46998 | 4187 ft | 10 kts | 13° |
| 2026-04-29 13:24 | -18.79830 | 47.47005 | 4187 ft | 5 kts | 6° |
| 2026-04-29 13:24 | -18.79799 | 47.47008 | 4187 ft | 4 kts | 5° |
| 2026-04-29 13:24 | -18.79788 | 47.47009 | 4187 ft | 0 kts | 4° |
| 2026-04-29 13:33 | -18.79783 | 47.47009 | 4187 ft | 4 kts | 4° |
| 2026-04-29 13:33 | -18.79779 | 47.47054 | 4186 ft | 11 kts | 101° |
| 2026-04-29 13:33 | -18.79784 | 47.47105 | 4184 ft | 0 kts | 75° |
| 2026-04-29 13:34 | -18.79774 | 47.47114 | 4184 ft | 7 kts | 22° |
| 2026-04-29 13:34 | -18.79689 | 47.47128 | 4184 ft | 18 kts | 8° |
| 2026-04-29 13:34 | -18.79590 | 47.47151 | 4184 ft | 9 kts | 29° |
| 2026-04-29 13:34 | -18.79586 | 47.47170 | 4183 ft | 0 kts | 102° |
| 2026-04-29 13:35 | -18.79586 | 47.47171 | 4183 ft | 0 kts | 102° |
| 2026-04-29 13:35 | -18.79603 | 47.47275 | 4181 ft | 38 kts | 99° |
| 2026-04-29 13:35 | -18.79660 | 47.47697 | 4197 ft | 71 kts | 94° |
| 2026-04-29 13:35 | -18.79708 | 47.48207 | 4378 ft | 73 kts | 92° |
| 2026-04-29 13:36 | -18.79735 | 47.48791 | 4538 ft | 76 kts | 85° |
| 2026-04-29 13:36 | -18.79702 | 47.49275 | 4829 ft | 59 kts | 82° |
| 2026-04-29 13:36 | -18.79657 | 47.49749 | 4954 ft | 73 kts | 85° |
| 2026-04-29 13:36 | -18.79611 | 47.50347 | 5129 ft | 92 kts | 89° |
| 2026-04-29 13:37 | -18.79752 | 47.51052 | 5296 ft | 104 kts | 105° |
| 2026-04-29 13:37 | -18.80009 | 47.51794 | 5456 ft | 111 kts | 107° |
| 2026-04-29 13:37 | -18.80280 | 47.52583 | 5606 ft | 117 kts | 107° |
| 2026-04-29 13:37 | -18.80558 | 47.53412 | 5763 ft | 123 kts | 105° |
| 2026-04-29 13:38 | -18.80682 | 47.54307 | 5886 ft | 121 kts | 94° |
| 2026-04-29 13:38 | -18.80658 | 47.55136 | 5979 ft | 113 kts | 71° |
| 2026-04-29 13:38 | -18.80124 | 47.55745 | 6106 ft | 118 kts | 31° |
| 2026-04-29 13:38 | -18.79296 | 47.55827 | 6251 ft | 126 kts | 344° |
| 2026-04-29 13:39 | -18.78646 | 47.55240 | 6399 ft | 125 kts | 294° |
| 2026-04-29 13:39 | -18.78452 | 47.54373 | 6575 ft | 120 kts | 278° |
| 2026-04-29 13:39 | -18.78273 | 47.53513 | 6722 ft | 121 kts | 281° |
| 2026-04-29 13:39 | -18.78095 | 47.52640 | 6880 ft | 123 kts | 279° |
| 2026-04-29 13:40 | -18.77919 | 47.51764 | 7048 ft | 121 kts | 279° |
| 2026-04-29 13:40 | -18.77741 | 47.50894 | 7205 ft | 120 kts | 280° |
| 2026-04-29 13:40 | -18.77566 | 47.50030 | 7359 ft | 120 kts | 278° |
| 2026-04-29 13:40 | -18.77394 | 47.49166 | 7457 ft | 129 kts | 279° |
| 2026-04-29 13:41 | -18.77189 | 47.48190 | 7478 ft | 144 kts | 280° |
| 2026-04-29 13:41 | -18.76966 | 47.47093 | 7476 ft | 161 kts | 280° |
| 2026-04-29 13:41 | -18.76720 | 47.45899 | 7482 ft | 171 kts | 281° |
| 2026-04-29 13:41 | -18.76466 | 47.44650 | 7477 ft | 177 kts | 281° |
| 2026-04-29 13:42 | -18.76202 | 47.43359 | 7469 ft | 181 kts | 281° |
| 2026-04-29 13:42 | -18.75934 | 47.42054 | 7468 ft | 183 kts | 280° |
| 2026-04-29 13:42 | -18.75665 | 47.40733 | 7469 ft | 185 kts | 281° |
| 2026-04-29 13:42 | -18.75393 | 47.39394 | 7469 ft | 187 kts | 281° |
| 2026-04-29 13:43 | -18.75122 | 47.38066 | 7463 ft | 183 kts | 281° |
| 2026-04-29 13:43 | -18.74857 | 47.36772 | 7462 ft | 180 kts | 281° |
| 2026-04-29 13:43 | -18.74594 | 47.35485 | 7458 ft | 179 kts | 280° |
| 2026-04-29 13:43 | -18.74334 | 47.34203 | 7456 ft | 178 kts | 281° |
| 2026-04-29 13:44 | -18.74072 | 47.32930 | 7455 ft | 177 kts | 280° |
| 2026-04-29 13:44 | -18.73813 | 47.31660 | 7446 ft | 177 kts | 281° |
| 2026-04-29 13:44 | -18.73556 | 47.30400 | 7448 ft | 176 kts | 281° |
| 2026-04-29 13:44 | -18.73294 | 47.29132 | 7445 ft | 177 kts | 281° |
| 2026-04-29 13:45 | -18.73034 | 47.27857 | 7447 ft | 178 kts | 280° |
| 2026-04-29 13:45 | -18.72778 | 47.26601 | 7445 ft | 177 kts | 281° |
| 2026-04-29 13:45 | -18.72517 | 47.25332 | 7444 ft | 178 kts | 281° |
| 2026-04-29 13:45 | -18.72254 | 47.24055 | 7440 ft | 178 kts | 281° |
| 2026-04-29 13:46 | -18.71993 | 47.22780 | 7438 ft | 178 kts | 281° |
| 2026-04-29 13:46 | -18.71732 | 47.21504 | 7438 ft | 178 kts | 281° |
| 2026-04-29 13:46 | -18.71471 | 47.20235 | 7433 ft | 177 kts | 280° |
| 2026-04-29 13:46 | -18.71209 | 47.18968 | 7436 ft | 177 kts | 280° |
| 2026-04-29 13:47 | -18.70951 | 47.17698 | 7432 ft | 177 kts | 281° |
| 2026-04-29 13:47 | -18.70690 | 47.16428 | 7434 ft | 178 kts | 281° |
| 2026-04-29 13:47 | -18.70427 | 47.15155 | 7432 ft | 178 kts | 281° |
| 2026-04-29 13:47 | -18.70164 | 47.13881 | 7424 ft | 177 kts | 280° |
| 2026-04-29 13:48 | -18.69905 | 47.12610 | 7426 ft | 177 kts | 281° |
| 2026-04-29 13:48 | -18.69645 | 47.11339 | 7423 ft | 177 kts | 281° |
| 2026-04-29 13:48 | -18.69383 | 47.10072 | 7417 ft | 176 kts | 281° |
| 2026-04-29 13:48 | -18.69122 | 47.08811 | 7418 ft | 176 kts | 281° |
| 2026-04-29 13:49 | -18.68864 | 47.07554 | 7416 ft | 175 kts | 280° |
| 2026-04-29 13:49 | -18.68606 | 47.06308 | 7417 ft | 173 kts | 280° |
| 2026-04-29 13:49 | -18.68340 | 47.05071 | 7415 ft | 173 kts | 284° |
| 2026-04-29 13:49 | -18.68009 | 47.03847 | 7418 ft | 173 kts | 283° |
| 2026-04-29 13:50 | -18.67703 | 47.02618 | 7414 ft | 173 kts | 283° |
| 2026-04-29 13:50 | -18.67388 | 47.01387 | 7420 ft | 174 kts | 283° |
| 2026-04-29 13:50 | -18.67069 | 47.00150 | 7418 ft | 175 kts | 284° |
| 2026-04-29 13:50 | -18.66748 | 46.98909 | 7415 ft | 176 kts | 284° |
| 2026-04-29 13:51 | -18.66429 | 46.97668 | 7417 ft | 176 kts | 284° |
| 2026-04-29 13:51 | -18.66107 | 46.96428 | 7417 ft | 175 kts | 284° |
| 2026-04-29 13:51 | -18.65785 | 46.95185 | 7411 ft | 176 kts | 283° |
| 2026-04-29 13:51 | -18.65472 | 46.93966 | 7415 ft | 174 kts | 283° |
| 2026-04-29 13:52 | -18.65153 | 46.92736 | 7410 ft | 174 kts | 283° |
| 2026-04-29 13:52 | -18.64836 | 46.91512 | 7405 ft | 173 kts | 284° |
| 2026-04-29 13:52 | -18.64521 | 46.90298 | 7408 ft | 171 kts | 284° |
| 2026-04-29 13:52 | -18.64208 | 46.89089 | 7404 ft | 171 kts | 283° |
| 2026-04-29 13:53 | -18.63896 | 46.87881 | 7406 ft | 171 kts | 283° |
| 2026-04-29 13:53 | -18.63583 | 46.86672 | 7405 ft | 171 kts | 283° |
| 2026-04-29 13:53 | -18.63271 | 46.85465 | 7406 ft | 171 kts | 283° |
| 2026-04-29 13:53 | -18.62957 | 46.84254 | 7404 ft | 172 kts | 284° |
| 2026-04-29 13:54 | -18.62640 | 46.83037 | 7405 ft | 172 kts | 284° |
| 2026-04-29 13:54 | -18.62324 | 46.81821 | 7400 ft | 171 kts | 283° |
| 2026-04-29 13:54 | -18.62011 | 46.80616 | 7395 ft | 170 kts | 283° |
| 2026-04-29 13:54 | -18.61709 | 46.79435 | 7402 ft | 166 kts | 283° |
| 2026-04-29 13:55 | -18.61401 | 46.78263 | 7405 ft | 166 kts | 283° |
| 2026-04-29 13:55 | -18.61096 | 46.77085 | 7403 ft | 167 kts | 284° |
| 2026-04-29 13:55 | -18.60787 | 46.75897 | 7404 ft | 169 kts | 283° |
| 2026-04-29 13:55 | -18.60475 | 46.74700 | 7403 ft | 170 kts | 283° |
| 2026-04-29 13:56 | -18.60166 | 46.73499 | 7408 ft | 170 kts | 283° |
| 2026-04-29 13:56 | -18.59853 | 46.72297 | 7404 ft | 170 kts | 283° |
| 2026-04-29 13:56 | -18.59543 | 46.71106 | 7410 ft | 172 kts | 284° |
| 2026-04-29 13:56 | -18.59227 | 46.69892 | 7408 ft | 172 kts | 283° |
| 2026-04-29 13:57 | -18.58910 | 46.68675 | 7405 ft | 172 kts | 283° |
| 2026-04-29 13:57 | -18.58593 | 46.67454 | 7407 ft | 173 kts | 284° |
| 2026-04-29 13:57 | -18.58274 | 46.66233 | 7406 ft | 173 kts | 284° |
| 2026-04-29 13:57 | -18.57957 | 46.65012 | 7409 ft | 173 kts | 284° |
| 2026-04-29 13:58 | -18.57639 | 46.63788 | 7409 ft | 173 kts | 283° |
| 2026-04-29 13:58 | -18.57319 | 46.62562 | 7411 ft | 174 kts | 284° |
| 2026-04-29 13:58 | -18.57000 | 46.61335 | 7405 ft | 173 kts | 283° |
| 2026-04-29 13:58 | -18.56683 | 46.60118 | 7404 ft | 172 kts | 284° |
| 2026-04-29 13:59 | -18.56365 | 46.58903 | 7403 ft | 171 kts | 284° |
| 2026-04-29 13:59 | -18.56050 | 46.57694 | 7395 ft | 171 kts | 283° |
| 2026-04-29 13:59 | -18.55736 | 46.56490 | 7394 ft | 170 kts | 283° |
| 2026-04-29 13:59 | -18.55423 | 46.55290 | 7396 ft | 170 kts | 283° |
| 2026-04-29 14:00 | -18.55109 | 46.54090 | 7392 ft | 170 kts | 283° |
| 2026-04-29 14:00 | -18.54795 | 46.52886 | 7392 ft | 171 kts | 284° |
| 2026-04-29 14:00 | -18.54478 | 46.51674 | 7391 ft | 172 kts | 283° |
| 2026-04-29 14:00 | -18.54161 | 46.50460 | 7388 ft | 172 kts | 283° |
| 2026-04-29 14:01 | -18.53846 | 46.49256 | 7391 ft | 173 kts | 284° |
| 2026-04-29 14:01 | -18.53526 | 46.48027 | 7396 ft | 174 kts | 284° |
| 2026-04-29 14:01 | -18.53204 | 46.46795 | 7390 ft | 175 kts | 284° |
| 2026-04-29 14:01 | -18.52881 | 46.45560 | 7394 ft | 175 kts | 284° |
| 2026-04-29 14:02 | -18.52557 | 46.44323 | 7390 ft | 175 kts | 284° |
| 2026-04-29 14:02 | -18.52233 | 46.43086 | 7386 ft | 175 kts | 283° |
| 2026-04-29 14:02 | -18.51911 | 46.41854 | 7389 ft | 174 kts | 284° |
| 2026-04-29 14:02 | -18.51589 | 46.40624 | 7388 ft | 174 kts | 284° |
| 2026-04-29 14:03 | -18.51266 | 46.39396 | 7379 ft | 174 kts | 284° |
| 2026-04-29 14:03 | -18.50945 | 46.38167 | 7378 ft | 174 kts | 284° |
| 2026-04-29 14:03 | -18.50624 | 46.36941 | 7379 ft | 174 kts | 284° |
| 2026-04-29 14:03 | -18.50301 | 46.35712 | 7377 ft | 174 kts | 284° |
| 2026-04-29 14:04 | -18.49980 | 46.34485 | 7385 ft | 174 kts | 284° |
| 2026-04-29 14:04 | -18.49658 | 46.33258 | 7378 ft | 173 kts | 283° |
| 2026-04-29 14:04 | -18.49337 | 46.32034 | 7377 ft | 173 kts | 284° |
| 2026-04-29 14:04 | -18.49018 | 46.30812 | 7374 ft | 173 kts | 284° |
| 2026-04-29 14:05 | -18.48699 | 46.29605 | 7374 ft | 173 kts | 284° |
| 2026-04-29 14:05 | -18.48380 | 46.28387 | 7371 ft | 172 kts | 283° |
| 2026-04-29 14:05 | -18.48062 | 46.27175 | 7370 ft | 172 kts | 284° |
| 2026-04-29 14:05 | -18.47743 | 46.25960 | 7369 ft | 172 kts | 284° |
| 2026-04-29 14:06 | -18.47425 | 46.24747 | 7370 ft | 172 kts | 284° |
| 2026-04-29 14:06 | -18.47105 | 46.23535 | 7369 ft | 172 kts | 284° |
| 2026-04-29 14:06 | -18.46785 | 46.22317 | 7370 ft | 173 kts | 284° |
| 2026-04-29 14:06 | -18.46462 | 46.21092 | 7365 ft | 174 kts | 284° |
| 2026-04-29 14:07 | -18.46138 | 46.19862 | 7369 ft | 174 kts | 284° |
| 2026-04-29 14:07 | -18.45815 | 46.18630 | 7366 ft | 175 kts | 284° |
| 2026-04-29 14:07 | -18.45491 | 46.17397 | 7366 ft | 175 kts | 284° |
| 2026-04-29 14:07 | -18.45167 | 46.16165 | 7362 ft | 175 kts | 284° |
| 2026-04-29 14:08 | -18.44841 | 46.14931 | 7365 ft | 175 kts | 284° |
| 2026-04-29 14:08 | -18.44516 | 46.13697 | 7365 ft | 175 kts | 284° |
| 2026-04-29 14:08 | -18.44191 | 46.12467 | 7365 ft | 174 kts | 284° |
| 2026-04-29 14:08 | -18.43866 | 46.11235 | 7361 ft | 174 kts | 284° |
| 2026-04-29 14:09 | -18.43543 | 46.10005 | 7361 ft | 174 kts | 284° |
| 2026-04-29 14:09 | -18.43219 | 46.08777 | 7362 ft | 174 kts | 284° |
| 2026-04-29 14:09 | -18.42897 | 46.07557 | 7358 ft | 173 kts | 284° |
| 2026-04-29 14:09 | -18.42574 | 46.06339 | 7356 ft | 172 kts | 284° |
| 2026-04-29 14:10 | -18.42256 | 46.05126 | 7354 ft | 172 kts | 284° |
| 2026-04-29 14:10 | -18.41937 | 46.03915 | 7355 ft | 172 kts | 284° |
| 2026-04-29 14:10 | -18.41621 | 46.02719 | 7352 ft | 172 kts | 284° |
| 2026-04-29 14:10 | -18.41299 | 46.01507 | 7351 ft | 172 kts | 284° |
| 2026-04-29 14:11 | -18.40980 | 46.00296 | 7349 ft | 172 kts | 284° |
| 2026-04-29 14:11 | -18.40660 | 45.99084 | 7352 ft | 173 kts | 284° |
| 2026-04-29 14:11 | -18.40337 | 45.97866 | 7350 ft | 172 kts | 284° |
| 2026-04-29 14:11 | -18.40016 | 45.96654 | 7350 ft | 172 kts | 284° |
| 2026-04-29 14:12 | -18.39695 | 45.95439 | 7350 ft | 172 kts | 284° |
| 2026-04-29 14:12 | -18.39375 | 45.94226 | 7344 ft | 172 kts | 284° |
| 2026-04-29 14:12 | -18.39056 | 45.93024 | 7346 ft | 170 kts | 284° |
| 2026-04-29 14:12 | -18.38736 | 45.91821 | 7348 ft | 171 kts | 284° |
| 2026-04-29 14:13 | -18.38419 | 45.90616 | 7347 ft | 171 kts | 284° |
| 2026-04-29 14:13 | -18.38099 | 45.89409 | 7346 ft | 171 kts | 284° |
| 2026-04-29 14:13 | -18.37779 | 45.88203 | 7345 ft | 171 kts | 284° |
| 2026-04-29 14:13 | -18.37459 | 45.86999 | 7345 ft | 171 kts | 284° |
| 2026-04-29 14:14 | -18.37140 | 45.85790 | 7343 ft | 172 kts | 284° |
| 2026-04-29 14:14 | -18.36819 | 45.84577 | 7346 ft | 172 kts | 284° |
| 2026-04-29 14:14 | -18.36497 | 45.83366 | 7346 ft | 172 kts | 284° |
| 2026-04-29 14:14 | -18.36175 | 45.82155 | 7344 ft | 172 kts | 284° |
| 2026-04-29 14:15 | -18.35854 | 45.80947 | 7342 ft | 171 kts | 284° |
| 2026-04-29 14:15 | -18.35533 | 45.79740 | 7343 ft | 171 kts | 284° |
| 2026-04-29 14:15 | -18.35213 | 45.78531 | 7344 ft | 171 kts | 284° |
| 2026-04-29 14:15 | -18.34895 | 45.77326 | 7341 ft | 171 kts | 284° |
| 2026-04-29 14:16 | -18.34573 | 45.76125 | 7341 ft | 171 kts | 284° |
| 2026-04-29 14:16 | -18.34258 | 45.74939 | 7340 ft | 171 kts | 283° |
| 2026-04-29 14:16 | -18.33938 | 45.73731 | 7343 ft | 172 kts | 284° |
| 2026-04-29 14:16 | -18.33616 | 45.72522 | 7343 ft | 172 kts | 284° |
| 2026-04-29 14:17 | -18.33293 | 45.71308 | 7342 ft | 172 kts | 284° |
| 2026-04-29 14:17 | -18.32970 | 45.70093 | 7341 ft | 172 kts | 284° |
| 2026-04-29 14:17 | -18.32645 | 45.68875 | 7341 ft | 173 kts | 284° |
| 2026-04-29 14:17 | -18.32320 | 45.67656 | 7341 ft | 173 kts | 284° |
| 2026-04-29 14:18 | -18.31995 | 45.66434 | 7339 ft | 173 kts | 284° |
| 2026-04-29 14:18 | -18.31670 | 45.65212 | 7335 ft | 173 kts | 284° |
| 2026-04-29 14:18 | -18.31345 | 45.63997 | 7337 ft | 173 kts | 283° |
| 2026-04-29 14:18 | -18.31023 | 45.62783 | 7341 ft | 173 kts | 283° |
| 2026-04-29 14:19 | -18.30699 | 45.61566 | 7339 ft | 172 kts | 284° |
| 2026-04-29 14:19 | -18.30376 | 45.60354 | 7333 ft | 171 kts | 284° |
| 2026-04-29 14:19 | -18.30052 | 45.59147 | 7334 ft | 172 kts | 283° |
| 2026-04-29 14:19 | -18.29729 | 45.57938 | 7336 ft | 172 kts | 284° |
| 2026-04-29 14:20 | -18.29407 | 45.56726 | 7336 ft | 172 kts | 284° |
| 2026-04-29 14:20 | -18.29081 | 45.55510 | 7336 ft | 173 kts | 284° |
| 2026-04-29 14:20 | -18.28756 | 45.54284 | 7332 ft | 175 kts | 284° |
| 2026-04-29 14:20 | -18.28433 | 45.53073 | 7331 ft | 174 kts | 283° |
| 2026-04-29 14:21 | -18.28105 | 45.51846 | 7327 ft | 174 kts | 284° |
| 2026-04-29 14:21 | -18.27775 | 45.50620 | 7328 ft | 174 kts | 284° |
| 2026-04-29 14:21 | -18.27447 | 45.49388 | 7328 ft | 175 kts | 284° |
| 2026-04-29 14:21 | -18.27117 | 45.48158 | 7323 ft | 175 kts | 284° |
| 2026-04-29 14:22 | -18.26788 | 45.46929 | 7321 ft | 174 kts | 284° |
| 2026-04-29 14:22 | -18.26461 | 45.45700 | 7319 ft | 174 kts | 284° |
| 2026-04-29 14:22 | -18.26134 | 45.44472 | 7324 ft | 175 kts | 284° |
| 2026-04-29 14:22 | -18.25914 | 45.43655 | 7319 ft | 175 kts | 284° |
| 2026-04-29 14:23 | -18.25582 | 45.42424 | 7317 ft | 175 kts | 284° |
| 2026-04-29 14:23 | -18.25253 | 45.41191 | 7316 ft | 175 kts | 283° |
| 2026-04-29 14:23 | -18.24923 | 45.39961 | 7318 ft | 175 kts | 283° |
| 2026-04-29 14:23 | -18.24594 | 45.38728 | 7314 ft | 175 kts | 283° |
| 2026-04-29 14:24 | -18.24265 | 45.37496 | 7309 ft | 174 kts | 283° |
| 2026-04-29 14:24 | -18.23934 | 45.36268 | 7309 ft | 175 kts | 284° |
| 2026-04-29 14:24 | -18.23602 | 45.35037 | 7309 ft | 175 kts | 283° |
| 2026-04-29 14:24 | -18.23272 | 45.33803 | 7305 ft | 175 kts | 283° |
| 2026-04-29 14:25 | -18.22941 | 45.32569 | 7302 ft | 175 kts | 283° |
| 2026-04-29 14:25 | -18.22611 | 45.31335 | 7304 ft | 175 kts | 283° |
| 2026-04-29 14:25 | -18.22281 | 45.30107 | 7296 ft | 173 kts | 284° |
| 2026-04-29 14:25 | -18.21953 | 45.28894 | 7299 ft | 172 kts | 284° |
| 2026-04-29 14:26 | -18.21629 | 45.27677 | 7296 ft | 172 kts | 283° |
| 2026-04-29 14:26 | -18.21300 | 45.26460 | 7297 ft | 174 kts | 284° |
| 2026-04-29 14:26 | -18.20972 | 45.25239 | 7295 ft | 173 kts | 283° |
| 2026-04-29 14:26 | -18.20649 | 45.24033 | 7293 ft | 174 kts | 283° |
| 2026-04-29 14:27 | -18.20320 | 45.22806 | 7293 ft | 174 kts | 284° |
| 2026-04-29 14:27 | -18.19985 | 45.21564 | 7293 ft | 174 kts | 283° |
| 2026-04-29 14:27 | -18.19659 | 45.20354 | 7291 ft | 175 kts | 283° |
| 2026-04-29 14:28 | -18.18995 | 45.17891 | 7289 ft | 176 kts | 284° |
| 2026-04-29 14:28 | -18.18663 | 45.16657 | 7289 ft | 176 kts | 283° |
| 2026-04-29 14:28 | -18.18330 | 45.15420 | 7287 ft | 175 kts | 283° |
| 2026-04-29 14:28 | -18.18000 | 45.14193 | 7284 ft | 174 kts | 284° |
| 2026-04-29 14:29 | -18.17668 | 45.12966 | 7284 ft | 174 kts | 284° |
| 2026-04-29 14:29 | -18.17338 | 45.11739 | 7279 ft | 174 kts | 284° |
| 2026-04-29 14:29 | -18.17008 | 45.10513 | 7281 ft | 175 kts | 283° |
| 2026-04-29 14:29 | -18.16675 | 45.09285 | 7283 ft | 175 kts | 284° |
| 2026-04-29 14:30 | -18.16343 | 45.08051 | 7279 ft | 175 kts | 284° |
| 2026-04-29 14:30 | -18.16011 | 45.06817 | 7279 ft | 175 kts | 284° |
| 2026-04-29 14:30 | -18.15682 | 45.05600 | 7280 ft | 176 kts | 284° |
| 2026-04-29 14:30 | -18.15349 | 45.04364 | 7275 ft | 176 kts | 284° |
| 2026-04-29 14:31 | -18.15015 | 45.03129 | 7275 ft | 176 kts | 283° |
| 2026-04-29 14:31 | -18.14680 | 45.01895 | 7275 ft | 175 kts | 284° |
| 2026-04-29 14:31 | -18.14348 | 45.00663 | 7271 ft | 175 kts | 284° |
| 2026-04-29 14:31 | -18.14016 | 44.99432 | 7271 ft | 175 kts | 284° |
| 2026-04-29 14:32 | -18.13670 | 44.98205 | 7270 ft | 175 kts | 289° |
| 2026-04-29 14:32 | -18.13137 | 44.97050 | 7270 ft | 176 kts | 295° |
| 2026-04-29 14:32 | -18.12586 | 44.95905 | 7272 ft | 175 kts | 294° |
| 2026-04-29 14:32 | -18.12044 | 44.94751 | 7273 ft | 177 kts | 294° |
| 2026-04-29 14:33 | -18.11501 | 44.93588 | 7270 ft | 177 kts | 295° |
| 2026-04-29 14:33 | -18.10954 | 44.92427 | 7273 ft | 178 kts | 295° |
| 2026-04-29 14:33 | -18.10408 | 44.91264 | 7274 ft | 177 kts | 295° |
| 2026-04-29 14:33 | -18.09859 | 44.90098 | 7274 ft | 178 kts | 295° |
| 2026-04-29 14:34 | -18.09318 | 44.88947 | 7275 ft | 178 kts | 295° |
| 2026-04-29 14:34 | -18.08769 | 44.87780 | 7274 ft | 178 kts | 295° |
| 2026-04-29 14:34 | -18.08220 | 44.86616 | 7276 ft | 178 kts | 295° |
| 2026-04-29 14:34 | -18.07673 | 44.85451 | 7273 ft | 178 kts | 295° |
| 2026-04-29 14:35 | -18.07125 | 44.84287 | 7278 ft | 177 kts | 295° |
| 2026-04-29 14:35 | -18.06579 | 44.83127 | 7274 ft | 177 kts | 295° |
| 2026-04-29 14:35 | -18.06032 | 44.81967 | 7277 ft | 177 kts | 295° |
| 2026-04-29 14:35 | -18.05485 | 44.80805 | 7275 ft | 178 kts | 295° |
| 2026-04-29 14:36 | -18.04936 | 44.79639 | 7273 ft | 178 kts | 296° |
| 2026-04-29 14:36 | -18.04387 | 44.78472 | 7275 ft | 178 kts | 296° |
| 2026-04-29 14:36 | -18.03838 | 44.77311 | 7273 ft | 178 kts | 296° |
| 2026-04-29 14:36 | -18.03287 | 44.76141 | 7275 ft | 178 kts | 296° |
| 2026-04-29 14:37 | -18.02737 | 44.74973 | 7277 ft | 178 kts | 296° |
| 2026-04-29 14:37 | -18.02187 | 44.73807 | 7280 ft | 178 kts | 296° |
| 2026-04-29 14:37 | -18.01638 | 44.72643 | 7279 ft | 178 kts | 296° |
| 2026-04-29 14:37 | -18.01087 | 44.71476 | 7277 ft | 178 kts | 296° |
| 2026-04-29 14:38 | -18.00536 | 44.70308 | 7282 ft | 179 kts | 296° |
| 2026-04-29 14:38 | -17.99984 | 44.69136 | 7278 ft | 179 kts | 296° |
| 2026-04-29 14:38 | -17.99434 | 44.67970 | 7282 ft | 177 kts | 296° |
| 2026-04-29 14:38 | -17.98885 | 44.66810 | 7283 ft | 178 kts | 296° |
| 2026-04-29 14:39 | -17.98335 | 44.65644 | 7281 ft | 179 kts | 296° |
| 2026-04-29 14:39 | -17.97785 | 44.64476 | 7281 ft | 178 kts | 296° |
| 2026-04-29 14:39 | -17.97234 | 44.63312 | 7281 ft | 178 kts | 296° |
| 2026-04-29 14:39 | -17.96683 | 44.62149 | 7282 ft | 178 kts | 296° |
| 2026-04-29 14:40 | -17.96132 | 44.60978 | 7282 ft | 179 kts | 296° |
| 2026-04-29 14:40 | -17.95579 | 44.59809 | 7283 ft | 179 kts | 296° |
| 2026-04-29 14:40 | -17.95024 | 44.58636 | 7284 ft | 180 kts | 296° |
| 2026-04-29 14:40 | -17.94466 | 44.57456 | 7283 ft | 181 kts | 296° |
| 2026-04-29 14:41 | -17.93908 | 44.56273 | 7284 ft | 181 kts | 296° |
| 2026-04-29 14:41 | -17.93350 | 44.55094 | 7281 ft | 180 kts | 296° |
| 2026-04-29 14:41 | -17.92793 | 44.53919 | 7282 ft | 180 kts | 296° |
| 2026-04-29 14:41 | -17.92234 | 44.52741 | 7288 ft | 181 kts | 296° |
| 2026-04-29 14:42 | -17.91675 | 44.51553 | 7285 ft | 182 kts | 296° |
| 2026-04-29 14:42 | -17.91108 | 44.50357 | 7288 ft | 184 kts | 296° |
| 2026-04-29 14:42 | -17.90542 | 44.49158 | 7284 ft | 183 kts | 297° |
| 2026-04-29 14:42 | -17.89976 | 44.47965 | 7283 ft | 182 kts | 296° |
| 2026-04-29 14:43 | -17.89411 | 44.46778 | 7286 ft | 182 kts | 296° |
| 2026-04-29 14:43 | -17.88850 | 44.45588 | 7287 ft | 182 kts | 296° |
| 2026-04-29 14:43 | -17.88286 | 44.44397 | 7283 ft | 182 kts | 296° |
| 2026-04-29 14:43 | -17.87721 | 44.43208 | 7284 ft | 182 kts | 296° |
| 2026-04-29 14:44 | -17.87163 | 44.42029 | 7289 ft | 183 kts | 296° |
| 2026-04-29 14:44 | -17.86597 | 44.40832 | 7287 ft | 183 kts | 296° |
| 2026-04-29 14:44 | -17.86032 | 44.39641 | 7285 ft | 182 kts | 296° |
| 2026-04-29 14:44 | -17.85470 | 44.38459 | 7283 ft | 181 kts | 296° |
| 2026-04-29 14:45 | -17.84910 | 44.37279 | 7288 ft | 181 kts | 296° |
| 2026-04-29 14:45 | -17.84349 | 44.36094 | 7288 ft | 182 kts | 296° |
| 2026-04-29 14:45 | -17.83785 | 44.34903 | 7288 ft | 182 kts | 296° |
| 2026-04-29 14:45 | -17.83221 | 44.33714 | 7286 ft | 182 kts | 296° |
| 2026-04-29 14:46 | -17.82657 | 44.32532 | 7286 ft | 181 kts | 296° |
| 2026-04-29 14:46 | -17.82097 | 44.31349 | 7285 ft | 180 kts | 296° |
| 2026-04-29 14:46 | -17.81538 | 44.30172 | 7284 ft | 180 kts | 296° |
| 2026-04-29 14:46 | -17.80978 | 44.28995 | 7283 ft | 180 kts | 296° |
| 2026-04-29 14:47 | -17.80420 | 44.27819 | 7282 ft | 180 kts | 296° |
| 2026-04-29 14:47 | -17.79863 | 44.26646 | 7281 ft | 179 kts | 295° |
| 2026-04-29 14:47 | -17.79307 | 44.25479 | 7285 ft | 179 kts | 296° |
| 2026-04-29 14:47 | -17.78753 | 44.24313 | 7284 ft | 180 kts | 295° |
| 2026-04-29 14:48 | -17.78193 | 44.23131 | 7282 ft | 180 kts | 295° |
| 2026-04-29 14:48 | -17.77637 | 44.21963 | 7284 ft | 178 kts | 295° |
| 2026-04-29 14:48 | -17.77084 | 44.20800 | 7282 ft | 178 kts | 295° |
| 2026-04-29 14:48 | -17.76532 | 44.19643 | 7283 ft | 177 kts | 295° |
| 2026-04-29 14:49 | -17.75982 | 44.18483 | 7282 ft | 178 kts | 295° |
| 2026-04-29 14:49 | -17.75439 | 44.17341 | 7281 ft | 177 kts | 295° |
| 2026-04-29 14:49 | -17.74888 | 44.16186 | 7281 ft | 177 kts | 296° |
| 2026-04-29 14:49 | -17.74338 | 44.15029 | 7279 ft | 177 kts | 295° |
| 2026-04-29 14:50 | -17.73787 | 44.13872 | 7284 ft | 178 kts | 295° |
| 2026-04-29 14:50 | -17.73232 | 44.12707 | 7287 ft | 179 kts | 295° |
| 2026-04-29 14:50 | -17.72677 | 44.11540 | 7290 ft | 179 kts | 295° |
| 2026-04-29 14:50 | -17.72120 | 44.10371 | 7285 ft | 179 kts | 295° |
| 2026-04-29 14:51 | -17.71590 | 44.09258 | 7285 ft | 178 kts | 295° |
| 2026-04-29 14:51 | -17.71035 | 44.08096 | 7285 ft | 178 kts | 295° |
| 2026-04-29 14:51 | -17.70479 | 44.06930 | 7287 ft | 179 kts | 295° |
| 2026-04-29 14:51 | -17.69923 | 44.05762 | 7288 ft | 180 kts | 295° |
| 2026-04-29 14:52 | -17.69364 | 44.04589 | 7287 ft | 179 kts | 295° |
| 2026-04-29 14:52 | -17.68808 | 44.03420 | 7285 ft | 178 kts | 295° |
| 2026-04-29 14:52 | -17.68251 | 44.02256 | 7287 ft | 179 kts | 295° |
| 2026-04-29 14:52 | -17.67695 | 44.01089 | 7286 ft | 179 kts | 295° |
| 2026-04-29 14:53 | -17.67139 | 43.99923 | 7286 ft | 179 kts | 295° |
| 2026-04-29 14:53 | -17.66590 | 43.98774 | 7285 ft | 179 kts | 295° |
| 2026-04-29 14:53 | -17.66025 | 43.97591 | 7286 ft | 179 kts | 295° |
| 2026-04-29 14:53 | -17.65474 | 43.96439 | 7285 ft | 179 kts | 295° |
| 2026-04-29 14:54 | -17.64915 | 43.95269 | 7291 ft | 180 kts | 295° |
| 2026-04-29 14:54 | -17.64354 | 43.94089 | 7293 ft | 181 kts | 295° |
| 2026-04-29 14:54 | -17.63789 | 43.92906 | 7291 ft | 182 kts | 295° |
| 2026-04-29 14:54 | -17.63223 | 43.91723 | 7292 ft | 182 kts | 295° |
| 2026-04-29 14:55 | -17.62659 | 43.90546 | 7292 ft | 181 kts | 295° |
| 2026-04-29 14:55 | -17.62093 | 43.89361 | 7291 ft | 181 kts | 295° |
| 2026-04-29 14:55 | -17.61530 | 43.88179 | 7291 ft | 181 kts | 295° |
| 2026-04-29 14:55 | -17.60962 | 43.86996 | 7288 ft | 182 kts | 295° |
| 2026-04-29 14:56 | -17.60397 | 43.85814 | 7292 ft | 181 kts | 295° |
| 2026-04-29 14:56 | -17.59833 | 43.84635 | 7294 ft | 181 kts | 295° |
| 2026-04-29 14:56 | -17.59272 | 43.83461 | 7290 ft | 180 kts | 295° |
| 2026-04-29 14:56 | -17.58711 | 43.82288 | 7292 ft | 180 kts | 295° |
| 2026-04-29 14:57 | -17.58150 | 43.81115 | 7290 ft | 180 kts | 295° |
| 2026-04-29 14:57 | -17.57590 | 43.79944 | 7291 ft | 179 kts | 295° |
| 2026-04-29 14:57 | -17.57030 | 43.78777 | 7290 ft | 179 kts | 295° |
| 2026-04-29 14:57 | -17.56472 | 43.77612 | 7290 ft | 178 kts | 295° |
| 2026-04-29 14:58 | -17.55917 | 43.76453 | 7294 ft | 178 kts | 295° |
| 2026-04-29 14:58 | -17.55361 | 43.75289 | 7292 ft | 179 kts | 295° |
| 2026-04-29 14:58 | -17.54811 | 43.74141 | 7293 ft | 179 kts | 295° |
| 2026-04-29 14:58 | -17.54252 | 43.72975 | 7293 ft | 179 kts | 295° |
| 2026-04-29 14:59 | -17.53690 | 43.71805 | 7292 ft | 179 kts | 295° |
| 2026-04-29 14:59 | -17.53130 | 43.70637 | 7296 ft | 179 kts | 295° |
| 2026-04-29 14:59 | -17.52572 | 43.69469 | 7296 ft | 179 kts | 295° |
| 2026-04-29 14:59 | -17.52014 | 43.68302 | 7296 ft | 179 kts | 295° |
| 2026-04-29 15:00 | -17.51452 | 43.67136 | 7297 ft | 179 kts | 294° |
| 2026-04-29 15:00 | -17.50892 | 43.65971 | 7294 ft | 179 kts | 295° |
| 2026-04-29 15:00 | -17.50333 | 43.64804 | 7298 ft | 179 kts | 295° |
| 2026-04-29 15:00 | -17.49772 | 43.63633 | 7298 ft | 179 kts | 295° |
| 2026-04-29 15:01 | -17.49213 | 43.62470 | 7299 ft | 178 kts | 295° |
| 2026-04-29 15:01 | -17.48657 | 43.61314 | 7304 ft | 178 kts | 295° |
| 2026-04-29 15:01 | -17.48100 | 43.60154 | 7303 ft | 179 kts | 295° |
| 2026-04-29 15:01 | -17.47541 | 43.58986 | 7299 ft | 179 kts | 295° |
| 2026-04-29 15:02 | -17.46981 | 43.57821 | 7298 ft | 179 kts | 294° |
| 2026-04-29 15:02 | -17.46420 | 43.56653 | 7301 ft | 179 kts | 295° |
| 2026-04-29 15:02 | -17.45859 | 43.55488 | 7304 ft | 179 kts | 294° |
| 2026-04-29 15:02 | -17.45301 | 43.54325 | 7306 ft | 179 kts | 295° |
| 2026-04-29 15:03 | -17.44736 | 43.53154 | 7299 ft | 181 kts | 295° |
| 2026-04-29 15:03 | -17.44178 | 43.51992 | 7302 ft | 181 kts | 295° |
| 2026-04-29 15:03 | -17.43611 | 43.50811 | 7301 ft | 181 kts | 295° |
| 2026-04-29 15:03 | -17.43047 | 43.49633 | 7301 ft | 181 kts | 295° |
| 2026-04-29 15:04 | -17.42472 | 43.48443 | 7306 ft | 180 kts | 295° |
| 2026-04-29 15:04 | -17.41915 | 43.47286 | 7304 ft | 181 kts | 295° |
| 2026-04-29 15:04 | -17.41348 | 43.46105 | 7306 ft | 182 kts | 294° |
| 2026-04-29 15:04 | -17.40777 | 43.44920 | 7306 ft | 182 kts | 295° |
| 2026-04-29 15:05 | -17.40208 | 43.43738 | 7306 ft | 181 kts | 295° |
| 2026-04-29 15:05 | -17.39642 | 43.42562 | 7310 ft | 181 kts | 295° |
| 2026-04-29 15:05 | -17.39077 | 43.41391 | 7309 ft | 180 kts | 295° |
| 2026-04-29 15:05 | -17.38514 | 43.40222 | 7306 ft | 180 kts | 294° |
| 2026-04-29 15:06 | -17.37951 | 43.39052 | 7307 ft | 180 kts | 295° |
| 2026-04-29 15:06 | -17.37389 | 43.37886 | 7310 ft | 179 kts | 295° |
| 2026-04-29 15:06 | -17.36820 | 43.36705 | 7305 ft | 179 kts | 295° |
| 2026-04-29 15:06 | -17.36259 | 43.35542 | 7305 ft | 179 kts | 295° |
| 2026-04-29 15:07 | -17.35698 | 43.34378 | 7307 ft | 179 kts | 295° |
| 2026-04-29 15:07 | -17.35136 | 43.33213 | 7309 ft | 179 kts | 295° |
| 2026-04-29 15:07 | -17.34574 | 43.32049 | 7309 ft | 179 kts | 295° |
| 2026-04-29 15:07 | -17.34014 | 43.30887 | 7310 ft | 179 kts | 295° |
| 2026-04-29 15:08 | -17.33460 | 43.29737 | 7313 ft | 180 kts | 295° |
| 2026-04-29 15:08 | -17.32897 | 43.28567 | 7310 ft | 180 kts | 294° |
| 2026-04-29 15:08 | -17.32331 | 43.27399 | 7311 ft | 180 kts | 295° |
| 2026-04-29 15:08 | -17.31752 | 43.26197 | 7182 ft | 186 kts | 295° |
| 2026-04-29 15:09 | -17.31170 | 43.24989 | 7025 ft | 190 kts | 295° |
| 2026-04-29 15:09 | -17.30528 | 43.23765 | 6861 ft | 193 kts | 300° |
| 2026-04-29 15:09 | -17.29817 | 43.22569 | 6713 ft | 194 kts | 300° |
| 2026-04-29 15:09 | -17.29115 | 43.21361 | 6553 ft | 194 kts | 300° |
| 2026-04-29 15:10 | -17.28424 | 43.20145 | 6387 ft | 194 kts | 299° |
| 2026-04-29 15:10 | -17.27735 | 43.18935 | 6215 ft | 193 kts | 300° |
| 2026-04-29 15:10 | -17.27043 | 43.17730 | 6051 ft | 193 kts | 300° |
| 2026-04-29 15:10 | -17.26357 | 43.16529 | 5871 ft | 192 kts | 299° |
| 2026-04-29 15:11 | -17.25673 | 43.15330 | 5709 ft | 191 kts | 299° |
| 2026-04-29 15:11 | -17.24990 | 43.14137 | 5541 ft | 191 kts | 300° |
| 2026-04-29 15:11 | -17.24309 | 43.12948 | 5372 ft | 190 kts | 300° |
| 2026-04-29 15:11 | -17.23630 | 43.11761 | 5205 ft | 190 kts | 300° |
| 2026-04-29 15:12 | -17.22951 | 43.10572 | 5047 ft | 191 kts | 299° |
| 2026-04-29 15:12 | -17.22500 | 43.09784 | 4936 ft | 192 kts | 300° |
| 2026-04-29 15:12 | -17.21578 | 43.08170 | 4712 ft | 194 kts | 299° |
| 2026-04-29 15:12 | -17.20885 | 43.06959 | 4544 ft | 194 kts | 300° |
| 2026-04-29 15:13 | -17.20190 | 43.05745 | 4374 ft | 195 kts | 299° |
| 2026-04-29 15:13 | -17.19496 | 43.04529 | 4204 ft | 194 kts | 298° |
| 2026-04-29 15:13 | -17.18824 | 43.03360 | 4026 ft | 181 kts | 299° |
| 2026-04-29 15:13 | -17.18189 | 43.02263 | 3847 ft | 173 kts | 298° |
| 2026-04-29 15:14 | -17.17587 | 43.01209 | 3677 ft | 170 kts | 298° |
| 2026-04-29 15:14 | -17.16981 | 43.00149 | 3509 ft | 171 kts | 298° |
| 2026-04-29 15:14 | -17.16373 | 42.99081 | 3337 ft | 171 kts | 297° |
| 2026-04-29 15:14 | -17.15763 | 42.98020 | 3162 ft | 170 kts | 297° |
| 2026-04-29 15:15 | -17.15156 | 42.96967 | 2996 ft | 168 kts | 297° |
| 2026-04-29 15:15 | -17.14557 | 42.95918 | 2827 ft | 168 kts | 297° |
| 2026-04-29 15:15 | -17.13953 | 42.94871 | 2666 ft | 169 kts | 296° |
| 2026-04-29 15:15 | -17.13349 | 42.93810 | 2501 ft | 170 kts | 296° |
| 2026-04-29 15:16 | -17.12740 | 42.92746 | 2333 ft | 171 kts | 295° |
| 2026-04-29 15:16 | -17.12128 | 42.91688 | 2162 ft | 169 kts | 294° |
| 2026-04-29 15:16 | -17.11533 | 42.90649 | 1992 ft | 164 kts | 294° |
| 2026-04-29 15:16 | -17.10952 | 42.89630 | 1824 ft | 162 kts | 294° |
| 2026-04-29 15:17 | -17.10372 | 42.88621 | 1654 ft | 162 kts | 296° |
| 2026-04-29 15:17 | -17.09787 | 42.87605 | 1487 ft | 164 kts | 295° |
| 2026-04-29 15:17 | -17.09200 | 42.86580 | 1315 ft | 164 kts | 296° |
| 2026-04-29 15:17 | -17.08814 | 42.85904 | 1207 ft | 164 kts | 295° |
| 2026-04-29 15:18 | -17.08038 | 42.84542 | 986 ft | 161 kts | 292° |
| 2026-04-29 15:18 | -17.07552 | 42.83516 | 848 ft | 155 kts | 288° |
| 2026-04-29 15:18 | -17.07269 | 42.82824 | 760 ft | 158 kts | 285° |
| 2026-04-29 15:18 | -17.06883 | 42.81733 | 827 ft | 163 kts | 282° |
| 2026-04-29 15:19 | -17.06545 | 42.80568 | 893 ft | 169 kts | 279° |
| 2026-04-29 15:19 | -17.06224 | 42.79500 | 707 ft | 146 kts | 279° |
| 2026-04-29 15:19 | -17.05918 | 42.78553 | 650 ft | 130 kts | 276° |
| 2026-04-29 15:19 | -17.05722 | 42.77684 | 589 ft | 116 kts | 271° |
| 2026-04-29 15:20 | -17.05584 | 42.76953 | 612 ft | 86 kts | 266° |
| 2026-04-29 15:20 | -17.05503 | 42.76405 | 505 ft | 68 kts | 261° |
| 2026-04-29 15:20 | -17.05449 | 42.75903 | 391 ft | 74 kts | 282° |
| 2026-04-29 15:20 | -17.05345 | 42.75371 | 420 ft | 76 kts | 266° |
| 2026-04-29 15:21 | -17.05351 | 42.74827 | 421 ft | 74 kts | 270° |
| 2026-04-29 15:21 | -17.05428 | 42.74306 | 349 ft | 75 kts | 276° |
| 2026-04-29 15:21 | -17.05421 | 42.73779 | 255 ft | 73 kts | 270° |
| 2026-04-29 15:21 | -17.05424 | 42.73253 | 237 ft | 71 kts | 274° |
| 2026-04-29 15:22 | -17.05433 | 42.72712 | 170 ft | 78 kts | 261° |
| 2026-04-29 15:22 | -17.05417 | 42.72120 | 49 ft | 71 kts | 270° |
| 2026-04-29 15:22 | -17.05387 | 42.71742 | 38 ft | 40 kts | 265° |
| 2026-04-29 15:22 | -17.05390 | 42.71596 | 39 ft | 6 kts | 275° |
| 2026-04-29 15:23 | -17.05387 | 42.71546 | 39 ft | 10 kts | 271° |
| 2026-04-29 15:23 | -17.05380 | 42.71444 | 38 ft | 18 kts | 278° |
| 2026-04-29 15:23 | -17.05346 | 42.71320 | 39 ft | 15 kts | 348° |
| 2026-04-29 15:23 | -17.05328 | 42.71293 | 40 ft | 0 kts | 192° |